createdAt,value
2018-10-01T00:00:59.735Z,1007.63
2018-10-01T00:01:59.712Z,1007.64
2018-10-01T00:02:59.693Z,1007.64
2018-10-01T00:03:59.678Z,1007.59
2018-10-01T00:04:59.651Z,1007.61
2018-10-01T00:05:59.634Z,1007.60
2018-10-01T00:06:59.612Z,1007.58
2018-10-01T00:07:59.591Z,1007.59
2018-10-01T00:08:59.572Z,1007.62
2018-10-01T00:09:59.558Z,1007.58
2018-10-01T00:10:59.531Z,1007.55
2018-10-01T00:11:59.512Z,1007.56
2018-10-01T00:12:59.490Z,1007.57
2018-10-01T00:13:59.471Z,1007.52
2018-10-01T00:14:59.450Z,1007.52
2018-10-01T00:15:59.433Z,1007.52
2018-10-01T00:16:59.412Z,1007.54
2018-10-01T00:17:59.396Z,1007.53
2018-10-01T00:18:59.370Z,1007.52
2018-10-01T00:19:59.348Z,1007.59
2018-10-01T00:20:59.332Z,1007.62
2018-10-01T00:21:59.308Z,1007.64
2018-10-01T00:22:59.291Z,1007.60
2018-10-01T00:23:59.271Z,1007.68
2018-10-01T00:24:59.252Z,1007.66
2018-10-01T00:25:59.228Z,1007.65
2018-10-01T00:26:59.211Z,1007.65
2018-10-01T00:27:59.187Z,1007.63
2018-10-01T00:28:59.168Z,1007.68
2018-10-01T00:29:59.148Z,1007.68
2018-10-01T00:30:59.127Z,1007.68
2018-10-01T00:31:59.107Z,1007.65
2018-10-01T00:32:59.090Z,1007.64
2018-10-01T00:33:59.067Z,1007.65
2018-10-01T00:34:59.070Z,1007.65
2018-10-01T00:35:59.030Z,1007.60
2018-10-01T00:36:59.004Z,1007.66
2018-10-01T00:37:58.985Z,1007.60
2018-10-01T00:38:58.965Z,1007.57
2018-10-01T00:39:58.951Z,1007.56
2018-10-01T00:40:58.924Z,1007.54
2018-10-01T00:41:58.909Z,1007.54
2018-10-01T00:42:58.883Z,1007.54
2018-10-01T00:43:58.864Z,1007.58
2018-10-01T00:44:58.844Z,1007.54
2018-10-01T00:45:58.825Z,1007.51
2018-10-01T00:46:58.804Z,1007.54
2018-10-01T00:47:58.781Z,1007.49
2018-10-01T00:48:58.762Z,1007.53
2018-10-01T00:49:58.741Z,1007.48
2018-10-01T00:50:58.720Z,1007.49
2018-10-01T00:51:58.702Z,1007.46
2018-10-01T00:52:58.680Z,1007.48
2018-10-01T00:53:58.660Z,1007.48
2018-10-01T00:54:58.640Z,1007.47
2018-10-01T00:55:58.619Z,1007.47
2018-10-01T00:56:58.599Z,1007.47
2018-10-01T00:57:58.580Z,1007.48
2018-10-01T00:58:58.557Z,1007.47
2018-10-01T00:59:58.537Z,1007.47
2018-10-01T01:00:58.521Z,1007.44
2018-10-01T01:01:58.496Z,1007.44
2018-10-01T01:02:58.477Z,1007.43
2018-10-01T01:03:58.455Z,1007.39
2018-10-01T01:04:58.435Z,1007.36
2018-10-01T01:05:58.419Z,1007.37
2018-10-01T01:06:58.397Z,1007.35
2018-10-01T01:07:58.376Z,1007.34
2018-10-01T01:08:58.353Z,1007.35
2018-10-01T01:09:58.338Z,1007.35
2018-10-01T01:10:58.312Z,1007.33
2018-10-01T01:11:58.299Z,1007.26
2018-10-01T01:12:58.277Z,1007.29
2018-10-01T01:13:58.252Z,1007.30
2018-10-01T01:14:58.231Z,1007.29
2018-10-01T01:15:58.210Z,1007.27
2018-10-01T01:16:58.189Z,1007.28
2018-10-01T01:17:58.169Z,1007.33
2018-10-01T01:18:58.148Z,1007.35
2018-10-01T01:19:58.129Z,1007.36
2018-10-01T01:20:58.108Z,1007.34
2018-10-01T01:21:58.089Z,1007.31
2018-10-01T01:22:58.073Z,1007.34
2018-10-01T01:23:58.055Z,1007.34
2018-10-01T01:24:58.052Z,1007.32
2018-10-01T01:25:58.012Z,1007.35
2018-10-01T01:26:57.988Z,1007.38
2018-10-01T01:27:57.966Z,1007.38
2018-10-01T01:28:57.946Z,1007.38
2018-10-01T01:29:57.925Z,1007.39
2018-10-01T01:30:57.903Z,1007.40
2018-10-01T01:31:57.884Z,1007.42
2018-10-01T01:32:57.866Z,1007.46
2018-10-01T01:33:57.843Z,1007.45
2018-10-01T01:34:57.821Z,1007.43
2018-10-01T01:35:57.804Z,1007.42
2018-10-01T01:36:57.781Z,1007.40
2018-10-01T01:37:57.764Z,1007.43
2018-10-01T01:38:57.739Z,1007.44
2018-10-01T01:39:57.720Z,1007.49
2018-10-01T01:40:57.699Z,1007.52
2018-10-01T01:41:57.678Z,1007.50
2018-10-01T01:42:57.662Z,1007.55
2018-10-01T01:43:57.670Z,1007.49
2018-10-01T01:44:57.624Z,1007.49
2018-10-01T01:45:57.597Z,1007.50
2018-10-01T01:46:57.576Z,1007.49
2018-10-01T01:47:57.556Z,1007.45
2018-10-01T01:48:57.538Z,1007.48
2018-10-01T01:49:57.517Z,1007.48
2018-10-01T01:50:57.493Z,1007.53
2018-10-01T01:51:57.473Z,1007.59
2018-10-01T01:52:57.457Z,1007.57
2018-10-01T01:53:57.432Z,1007.58
2018-10-01T01:54:57.413Z,1007.58
2018-10-01T01:55:57.393Z,1007.58
2018-10-01T01:56:57.371Z,1007.61
2018-10-01T01:57:57.351Z,1007.64
2018-10-01T01:58:57.331Z,1007.63
2018-10-01T01:59:57.363Z,1007.64
2018-10-01T02:00:57.293Z,1007.63
2018-10-01T02:01:57.270Z,1007.66
2018-10-01T02:02:57.249Z,1007.64
2018-10-01T02:03:57.227Z,1007.67
2018-10-01T02:04:57.210Z,1007.64
2018-10-01T02:05:57.187Z,1007.66
2018-10-01T02:06:57.164Z,1007.68
2018-10-01T02:07:57.144Z,1007.65
2018-10-01T02:08:57.123Z,1007.69
2018-10-01T02:09:57.104Z,1007.64
2018-10-01T02:10:57.083Z,1007.67
2018-10-01T02:11:57.062Z,1007.66
2018-10-01T02:12:57.041Z,1007.66
2018-10-01T02:13:57.022Z,1007.68
2018-10-01T02:14:57.002Z,1007.64
2018-10-01T02:15:56.979Z,1007.64
2018-10-01T02:16:56.960Z,1007.62
2018-10-01T02:17:56.939Z,1007.64
2018-10-01T02:18:56.920Z,1007.64
2018-10-01T02:19:56.897Z,1007.64
2018-10-01T02:20:56.877Z,1007.66
2018-10-01T02:21:56.855Z,1007.69
2018-10-01T02:22:56.838Z,1007.67
2018-10-01T02:23:56.815Z,1007.65
2018-10-01T02:24:56.794Z,1007.68
2018-10-01T02:25:56.773Z,1007.64
2018-10-01T02:26:56.753Z,1007.67
2018-10-01T02:27:56.732Z,1007.66
2018-10-01T02:28:56.711Z,1007.68
2018-10-01T02:29:56.691Z,1007.65
2018-10-01T02:30:56.671Z,1007.70
2018-10-01T02:31:56.650Z,1007.67
2018-10-01T02:32:56.636Z,1007.65
2018-10-01T02:33:56.611Z,1007.65
2018-10-01T02:34:56.590Z,1007.66
2018-10-01T02:35:56.574Z,1007.66
2018-10-01T02:36:56.546Z,1007.68
2018-10-01T02:37:56.526Z,1007.69
2018-10-01T02:38:56.509Z,1007.71
2018-10-01T02:39:56.484Z,1007.71
2018-10-01T02:40:56.466Z,1007.69
2018-10-01T02:41:56.448Z,1007.75
2018-10-01T02:42:56.424Z,1007.77
2018-10-01T02:43:56.401Z,1007.74
2018-10-01T02:44:56.381Z,1007.78
2018-10-01T02:45:56.361Z,1007.73
2018-10-01T02:46:56.340Z,1007.76
2018-10-01T02:47:56.319Z,1007.73
2018-10-01T02:48:56.299Z,1007.72
2018-10-01T02:49:56.279Z,1007.72
2018-10-01T02:50:56.256Z,1007.70
2018-10-01T02:51:56.238Z,1007.70
2018-10-01T02:52:56.215Z,1007.66
2018-10-01T02:53:56.193Z,1007.65
2018-10-01T02:54:56.174Z,1007.63
2018-10-01T02:55:56.153Z,1007.64
2018-10-01T02:56:56.133Z,1007.64
2018-10-01T02:57:56.111Z,1007.66
2018-10-01T02:58:56.090Z,1007.66
2018-10-01T02:59:56.072Z,1007.62
2018-10-01T03:00:56.048Z,1007.62
2018-10-01T03:01:56.029Z,1007.60
2018-10-01T03:02:56.006Z,1007.61
2018-10-01T03:03:56.013Z,1007.61
2018-10-01T03:04:55.967Z,1007.59
2018-10-01T03:05:55.947Z,1007.62
2018-10-01T03:06:55.931Z,1007.60
2018-10-01T03:07:55.903Z,1007.63
2018-10-01T03:08:55.882Z,1007.64
2018-10-01T03:09:55.866Z,1007.65
2018-10-01T03:10:55.840Z,1007.59
2018-10-01T03:11:55.818Z,1007.62
2018-10-01T03:12:55.804Z,1007.60
2018-10-01T03:13:55.780Z,1007.57
2018-10-01T03:14:55.758Z,1007.58
2018-10-01T03:15:55.743Z,1007.58
2018-10-01T03:16:55.731Z,1007.54
2018-10-01T03:17:55.695Z,1007.59
2018-10-01T03:18:55.676Z,1007.59
2018-10-01T03:19:55.654Z,1007.53
2018-10-01T03:20:55.633Z,1007.52
2018-10-01T03:21:55.613Z,1007.57
2018-10-01T03:22:55.590Z,1007.54
2018-10-01T03:23:55.571Z,1007.56
2018-10-01T03:24:55.551Z,1007.53
2018-10-01T03:25:55.532Z,1007.51
2018-10-01T03:26:55.506Z,1007.53
2018-10-01T03:27:55.486Z,1007.54
2018-10-01T03:28:55.465Z,1007.57
2018-10-01T03:29:55.446Z,1007.61
2018-10-01T03:30:55.429Z,1007.60
2018-10-01T03:31:55.404Z,1007.55
2018-10-01T03:32:55.385Z,1007.55
2018-10-01T03:33:55.360Z,1007.56
2018-10-01T03:34:55.339Z,1007.55
2018-10-01T03:35:55.324Z,1007.56
2018-10-01T03:36:55.298Z,1007.59
2018-10-01T03:37:55.285Z,1007.56
2018-10-01T03:38:55.255Z,1007.57
2018-10-01T03:39:55.243Z,1007.59
2018-10-01T03:40:55.221Z,1007.55
2018-10-01T03:41:55.195Z,1007.61
2018-10-01T03:42:55.174Z,1007.60
2018-10-01T03:43:55.151Z,1007.63
2018-10-01T03:44:55.131Z,1007.59
2018-10-01T03:45:55.110Z,1007.63
2018-10-01T03:46:55.090Z,1007.62
2018-10-01T03:47:55.068Z,1007.61
2018-10-01T03:48:55.047Z,1007.62
2018-10-01T03:49:55.026Z,1007.62
2018-10-01T03:50:55.006Z,1007.59
2018-10-01T03:51:54.987Z,1007.59
2018-10-01T03:52:54.965Z,1007.60
2018-10-01T03:53:54.941Z,1007.61
2018-10-01T03:54:54.920Z,1007.64
2018-10-01T03:55:54.900Z,1007.61
2018-10-01T03:56:54.877Z,1007.60
2018-10-01T03:57:54.856Z,1007.57
2018-10-01T03:58:54.835Z,1007.56
2018-10-01T03:59:54.814Z,1007.55
2018-10-01T04:00:54.793Z,1007.60
2018-10-01T04:01:54.774Z,1007.60
2018-10-01T04:02:54.768Z,1007.62
2018-10-01T04:03:54.731Z,1007.59
2018-10-01T04:04:54.709Z,1007.54
2018-10-01T04:05:54.689Z,1007.55
2018-10-01T04:06:54.665Z,1007.53
2018-10-01T04:07:54.650Z,1007.51
2018-10-01T04:08:54.669Z,1007.58
2018-10-01T04:09:54.604Z,1007.51
2018-10-01T04:10:54.582Z,1007.54
2018-10-01T04:11:54.560Z,1007.53
2018-10-01T04:12:54.540Z,1007.57
2018-10-01T04:13:54.518Z,1007.58
2018-10-01T04:14:54.497Z,1007.58
2018-10-01T04:15:54.477Z,1007.59
2018-10-01T04:16:54.458Z,1007.55
2018-10-01T04:17:54.434Z,1007.57
2018-10-01T04:18:54.420Z,1007.59
2018-10-01T04:19:54.391Z,1007.59
2018-10-01T04:20:54.379Z,1007.60
2018-10-01T04:21:54.350Z,1007.60
2018-10-01T04:22:54.413Z,1007.59
2018-10-01T04:23:54.308Z,1007.58
2018-10-01T04:24:54.285Z,1007.61
2018-10-01T04:25:54.267Z,1007.61
2018-10-01T04:26:54.244Z,1007.62
2018-10-01T04:27:54.228Z,1007.58
2018-10-01T04:28:54.201Z,1007.59
2018-10-01T04:29:54.183Z,1007.59
2018-10-01T04:30:54.168Z,1007.61
2018-10-01T04:31:54.136Z,1007.60
2018-10-01T04:32:54.118Z,1007.64
2018-10-01T04:33:54.094Z,1007.59
2018-10-01T04:34:54.074Z,1007.59
2018-10-01T04:35:54.053Z,1007.58
2018-10-01T04:36:54.031Z,1007.64
2018-10-01T04:37:54.013Z,1007.63
2018-10-01T04:38:53.991Z,1007.68
2018-10-01T04:39:53.971Z,1007.69
2018-10-01T04:40:53.955Z,1007.70
2018-10-01T04:41:53.925Z,1007.68
2018-10-01T04:42:53.908Z,1007.75
2018-10-01T04:43:53.883Z,1007.79
2018-10-01T04:44:53.861Z,1007.77
2018-10-01T04:45:53.843Z,1007.78
2018-10-01T04:46:53.915Z,1007.76
2018-10-01T04:47:53.800Z,1007.74
2018-10-01T04:48:53.779Z,1007.79
2018-10-01T04:49:53.759Z,1007.80
2018-10-01T04:50:53.738Z,1007.80
2018-10-01T04:51:53.715Z,1007.84
2018-10-01T04:52:53.694Z,1007.84
2018-10-01T04:53:53.672Z,1007.86
2018-10-01T04:54:53.654Z,1007.88
2018-10-01T04:55:53.631Z,1007.90
2018-10-01T04:56:53.609Z,1007.88
2018-10-01T04:57:53.589Z,1007.90
2018-10-01T04:58:53.567Z,1007.92
2018-10-01T04:59:53.544Z,1007.94
2018-10-01T05:00:53.533Z,1007.93
2018-10-01T05:01:53.505Z,1007.93
2018-10-01T05:02:53.482Z,1007.95
2018-10-01T05:03:53.460Z,1007.92
2018-10-01T05:04:53.441Z,1007.93
2018-10-01T05:05:53.419Z,1007.94
2018-10-01T05:06:53.399Z,1007.94
2018-10-01T05:07:53.376Z,1007.98
2018-10-01T05:08:53.355Z,1007.99
2018-10-01T05:09:53.334Z,1007.97
2018-10-01T05:10:53.314Z,1007.96
2018-10-01T05:11:53.291Z,1007.95
2018-10-01T05:12:53.269Z,1007.96
2018-10-01T05:13:53.251Z,1007.96
2018-10-01T05:14:53.313Z,1008.00
2018-10-01T05:15:53.206Z,1008.00
2018-10-01T05:16:53.187Z,1008.00
2018-10-01T05:17:53.165Z,1007.99
2018-10-01T05:18:53.144Z,1007.99
2018-10-01T05:19:53.148Z,1008.04
2018-10-01T05:20:53.101Z,1008.07
2018-10-01T05:21:53.082Z,1008.06
2018-10-01T05:22:53.060Z,1008.10
2018-10-01T05:23:53.037Z,1008.10
2018-10-01T05:24:53.016Z,1008.12
2018-10-01T05:25:52.996Z,1008.11
2018-10-01T05:26:52.985Z,1008.17
2018-10-01T05:27:52.953Z,1008.16
2018-10-01T05:28:52.959Z,1008.12
2018-10-01T05:29:52.912Z,1008.15
2018-10-01T05:30:52.893Z,1008.16
2018-10-01T05:31:52.869Z,1008.18
2018-10-01T05:32:52.848Z,1008.18
2018-10-01T05:33:52.828Z,1008.22
2018-10-01T05:34:52.806Z,1008.20
2018-10-01T05:35:52.784Z,1008.21
2018-10-01T05:36:52.764Z,1008.20
2018-10-01T05:37:52.797Z,1008.24
2018-10-01T05:38:52.719Z,1008.27
2018-10-01T05:39:52.698Z,1008.30
2018-10-01T05:40:52.683Z,1008.30
2018-10-01T05:41:52.658Z,1008.29
2018-10-01T05:42:52.635Z,1008.30
2018-10-01T05:43:52.618Z,1008.36
2018-10-01T05:44:52.593Z,1008.36
2018-10-01T05:45:52.579Z,1008.38
2018-10-01T05:46:52.553Z,1008.36
2018-10-01T05:47:52.532Z,1008.41
2018-10-01T05:48:52.507Z,1008.38
2018-10-01T05:49:52.487Z,1008.38
2018-10-01T05:50:52.464Z,1008.39
2018-10-01T05:51:52.442Z,1008.38
2018-10-01T05:52:52.430Z,1008.41
2018-10-01T05:53:52.404Z,1008.42
2018-10-01T05:54:52.381Z,1008.43
2018-10-01T05:55:52.362Z,1008.46
2018-10-01T05:56:52.344Z,1008.44
2018-10-01T05:57:52.356Z,1008.46
2018-10-01T05:58:52.294Z,1008.49
2018-10-01T05:59:52.274Z,1008.50
2018-10-01T06:00:52.253Z,1008.49
2018-10-01T06:01:52.232Z,1008.51
2018-10-01T06:02:52.211Z,1008.54
2018-10-01T06:03:52.189Z,1008.49
2018-10-01T06:04:52.307Z,1008.51
2018-10-01T06:05:52.147Z,1008.54
2018-10-01T06:06:52.126Z,1008.56
2018-10-01T06:07:52.108Z,1008.55
2018-10-01T06:08:52.081Z,1008.59
2018-10-01T06:09:52.062Z,1008.59
2018-10-01T06:10:52.038Z,1008.57
2018-10-01T06:11:52.044Z,1008.63
2018-10-01T06:12:52.001Z,1008.64
2018-10-01T06:13:51.976Z,1008.63
2018-10-01T06:14:51.954Z,1008.66
2018-10-01T06:15:51.933Z,1008.62
2018-10-01T06:16:51.912Z,1008.66
2018-10-01T06:17:51.892Z,1008.63
2018-10-01T06:18:51.870Z,1008.68
2018-10-01T06:19:51.846Z,1008.70
2018-10-01T06:20:51.837Z,1008.71
2018-10-01T06:21:51.806Z,1008.72
2018-10-01T06:22:51.782Z,1008.73
2018-10-01T06:23:51.761Z,1008.76
2018-10-01T06:24:51.739Z,1008.80
2018-10-01T06:25:51.719Z,1008.84
2018-10-01T06:26:51.696Z,1008.83
2018-10-01T06:27:51.675Z,1008.86
2018-10-01T06:28:51.678Z,1008.82
2018-10-01T06:29:51.635Z,1008.88
2018-10-01T06:30:51.614Z,1008.92
2018-10-01T06:31:51.591Z,1008.93
2018-10-01T06:32:51.569Z,1008.93
2018-10-01T06:33:51.548Z,1008.88
2018-10-01T06:34:51.528Z,1008.86
2018-10-01T06:35:51.504Z,1008.87
2018-10-01T06:36:51.484Z,1008.89
2018-10-01T06:37:51.468Z,1008.87
2018-10-01T06:38:51.440Z,1008.87
2018-10-01T06:39:51.426Z,1008.89
2018-10-01T06:40:51.422Z,1008.91
2018-10-01T06:41:51.484Z,1008.91
2018-10-01T06:42:51.358Z,1008.85
2018-10-01T06:43:51.337Z,1008.87
2018-10-01T06:44:51.313Z,1008.88
2018-10-01T06:45:51.292Z,1008.87
2018-10-01T06:46:51.269Z,1008.88
2018-10-01T06:47:51.253Z,1008.86
2018-10-01T06:48:51.228Z,1008.87
2018-10-01T06:49:51.207Z,1008.84
2018-10-01T06:50:51.245Z,1008.86
2018-10-01T06:51:51.163Z,1008.83
2018-10-01T06:52:51.142Z,1008.86
2018-10-01T06:53:51.122Z,1008.88
2018-10-01T06:54:51.098Z,1008.87
2018-10-01T06:55:51.078Z,1008.90
2018-10-01T06:56:51.056Z,1008.90
2018-10-01T06:57:51.035Z,1008.90
2018-10-01T06:58:51.017Z,1008.90
2018-10-01T06:59:50.994Z,1008.93
2018-10-01T07:00:50.972Z,1008.93
2018-10-01T07:01:50.950Z,1008.95
2018-10-01T07:02:50.928Z,1008.97
2018-10-01T07:03:50.908Z,1009.01
2018-10-01T07:04:50.889Z,1009.05
2018-10-01T07:05:50.966Z,1009.07
2018-10-01T07:06:50.842Z,1009.07
2018-10-01T07:07:50.821Z,1009.03
2018-10-01T07:08:50.805Z,1009.07
2018-10-01T07:09:50.779Z,1009.03
2018-10-01T07:10:50.768Z,1009.06
2018-10-01T07:11:50.735Z,1009.06
2018-10-01T07:12:50.714Z,1009.06
2018-10-01T07:13:50.697Z,1009.10
2018-10-01T07:14:50.675Z,1009.11
2018-10-01T07:15:50.653Z,1009.06
2018-10-01T07:16:50.672Z,1009.15
2018-10-01T07:17:50.608Z,1009.12
2018-10-01T07:18:50.585Z,1009.10
2018-10-01T07:19:50.564Z,1009.15
2018-10-01T07:20:50.546Z,1009.17
2018-10-01T07:21:50.536Z,1009.14
2018-10-01T07:22:50.563Z,1009.12
2018-10-01T07:23:50.480Z,1009.16
2018-10-01T07:24:50.458Z,1009.14
2018-10-01T07:25:50.436Z,1009.14
2018-10-01T07:26:50.413Z,1009.16
2018-10-01T07:27:50.394Z,1009.14
2018-10-01T07:28:50.372Z,1009.13
2018-10-01T07:29:50.352Z,1009.17
2018-10-01T07:30:50.330Z,1009.19
2018-10-01T07:31:50.310Z,1009.18
2018-10-01T07:32:50.287Z,1009.19
2018-10-01T07:33:50.267Z,1009.21
2018-10-01T07:34:50.246Z,1009.20
2018-10-01T07:35:50.225Z,1009.19
2018-10-01T07:36:50.210Z,1009.22
2018-10-01T07:37:50.183Z,1009.24
2018-10-01T07:38:50.169Z,1009.30
2018-10-01T07:39:50.140Z,1009.27
2018-10-01T07:40:50.119Z,1009.29
2018-10-01T07:41:50.097Z,1009.26
2018-10-01T07:42:50.077Z,1009.28
2018-10-01T07:43:50.061Z,1009.31
2018-10-01T07:44:50.068Z,1009.27
2018-10-01T07:45:50.013Z,1009.36
2018-10-01T07:46:50.006Z,1009.34
2018-10-01T07:47:49.970Z,1009.33
2018-10-01T07:48:49.949Z,1009.37
2018-10-01T07:49:49.932Z,1009.35
2018-10-01T07:50:50.050Z,1009.38
2018-10-01T07:51:49.884Z,1009.32
2018-10-01T07:52:49.873Z,1009.37
2018-10-01T07:53:49.843Z,1009.40
2018-10-01T07:54:49.823Z,1009.37
2018-10-01T07:55:49.802Z,1009.37
2018-10-01T07:56:49.781Z,1009.39
2018-10-01T07:57:49.760Z,1009.38
2018-10-01T07:58:49.740Z,1009.42
2018-10-01T07:59:49.752Z,1009.46
2018-10-01T08:00:49.696Z,1009.48
2018-10-01T08:01:49.678Z,1009.46
2018-10-01T08:02:49.656Z,1009.51
2018-10-01T08:03:49.632Z,1009.48
2018-10-01T08:04:49.611Z,1009.51
2018-10-01T08:05:49.592Z,1009.49
2018-10-01T08:06:49.570Z,1009.55
2018-10-01T08:07:49.548Z,1009.57
2018-10-01T08:08:49.528Z,1009.56
2018-10-01T08:09:49.506Z,1009.60
2018-10-01T08:10:49.485Z,1009.59
2018-10-01T08:11:49.464Z,1009.58
2018-10-01T08:12:49.443Z,1009.62
2018-10-01T08:13:49.424Z,1009.61
2018-10-01T08:14:49.401Z,1009.60
2018-10-01T08:15:49.456Z,1009.66
2018-10-01T08:16:49.359Z,1009.64
2018-10-01T08:17:49.338Z,1009.63
2018-10-01T08:18:49.330Z,1009.64
2018-10-01T08:19:49.295Z,1009.64
2018-10-01T08:20:49.274Z,1009.66
2018-10-01T08:21:49.254Z,1009.75
2018-10-01T08:22:49.231Z,1009.67
2018-10-01T08:23:49.212Z,1009.69
2018-10-01T08:24:49.191Z,1009.73
2018-10-01T08:25:49.170Z,1009.78
2018-10-01T08:26:49.151Z,1009.77
2018-10-01T08:27:49.133Z,1009.79
2018-10-01T08:28:49.106Z,1009.82
2018-10-01T08:29:49.200Z,1009.78
2018-10-01T08:30:49.066Z,1009.81
2018-10-01T08:31:49.047Z,1009.85
2018-10-01T08:32:49.024Z,1009.79
2018-10-01T08:33:49.002Z,1009.82
2018-10-01T08:34:48.980Z,1009.91
2018-10-01T08:35:48.958Z,1009.82
2018-10-01T08:36:48.940Z,1009.91
2018-10-01T08:37:48.923Z,1009.85
2018-10-01T08:38:48.937Z,1009.89
2018-10-01T08:39:48.914Z,1009.93
2018-10-01T08:40:48.855Z,1009.98
2018-10-01T08:41:48.833Z,1009.90
2018-10-01T08:42:48.812Z,1009.96
2018-10-01T08:43:48.792Z,1010.00
2018-10-01T08:44:48.773Z,1009.94
2018-10-01T08:45:48.751Z,1009.97
2018-10-01T08:46:48.733Z,1010.02
2018-10-01T08:47:48.708Z,1010.00
2018-10-01T08:48:48.689Z,1010.08
2018-10-01T08:49:48.667Z,1010.00
2018-10-01T08:50:48.644Z,1010.07
2018-10-01T08:51:48.731Z,1010.08
2018-10-01T08:52:48.603Z,1010.12
2018-10-01T08:53:48.587Z,1010.03
2018-10-01T08:54:48.562Z,1010.06
2018-10-01T08:55:48.541Z,1010.05
2018-10-01T08:56:48.520Z,1010.10
2018-10-01T08:57:48.499Z,1010.11
2018-10-01T08:58:48.478Z,1010.09
2018-10-01T08:59:48.465Z,1010.19
2018-10-01T09:00:48.439Z,1010.14
2018-10-01T09:01:48.419Z,1010.13
2018-10-01T09:02:48.394Z,1010.17
2018-10-01T09:03:48.374Z,1010.17
2018-10-01T09:04:48.352Z,1010.19
2018-10-01T09:05:48.337Z,1010.23
2018-10-01T09:06:48.370Z,1010.24
2018-10-01T09:07:48.294Z,1010.16
2018-10-01T09:08:48.271Z,1010.24
2018-10-01T09:09:48.251Z,1010.16
2018-10-01T09:10:48.228Z,1010.18
2018-10-01T09:11:48.207Z,1010.19
2018-10-01T09:12:48.187Z,1010.14
2018-10-01T09:13:48.171Z,1010.15
2018-10-01T09:14:48.153Z,1010.14
2018-10-01T09:15:48.125Z,1010.12
2018-10-01T09:16:48.104Z,1010.13
2018-10-01T09:17:48.083Z,1010.13
2018-10-01T09:18:48.061Z,1010.14
2018-10-01T09:19:48.042Z,1010.15
2018-10-01T09:20:48.025Z,1010.19
2018-10-01T09:21:48.003Z,1010.22
2018-10-01T09:22:47.980Z,1010.16
2018-10-01T09:23:47.959Z,1010.19
2018-10-01T09:24:47.942Z,1010.23
2018-10-01T09:25:47.921Z,1010.20
2018-10-01T09:26:47.897Z,1010.32
2018-10-01T09:27:47.877Z,1010.31
2018-10-01T09:28:47.870Z,1010.22
2018-10-01T09:29:47.874Z,1010.23
2018-10-01T09:30:47.872Z,1010.26
2018-10-01T09:31:47.796Z,1010.28
2018-10-01T09:32:47.774Z,1010.34
2018-10-01T09:33:47.753Z,1010.32
2018-10-01T09:34:47.732Z,1010.27
2018-10-01T09:35:47.711Z,1010.31
2018-10-01T09:36:47.691Z,1010.28
2018-10-01T09:37:47.670Z,1010.32
2018-10-01T09:38:47.653Z,1010.26
2018-10-01T09:39:47.629Z,1010.27
2018-10-01T09:40:47.608Z,1010.29
2018-10-01T09:41:47.588Z,1010.27
2018-10-01T09:42:47.569Z,1010.26
2018-10-01T09:43:47.549Z,1010.26
2018-10-01T09:44:47.529Z,1010.30
2018-10-01T09:45:47.510Z,1010.28
2018-10-01T09:46:47.488Z,1010.26
2018-10-01T09:47:47.464Z,1010.25
2018-10-01T09:48:47.448Z,1010.26
2018-10-01T09:49:47.425Z,1010.22
2018-10-01T09:50:47.404Z,1010.24
2018-10-01T09:51:47.388Z,1010.29
2018-10-01T09:52:47.363Z,1010.32
2018-10-01T09:53:47.391Z,1010.25
2018-10-01T09:54:47.323Z,1010.27
2018-10-01T09:55:47.303Z,1010.19
2018-10-01T09:56:47.282Z,1010.25
2018-10-01T09:57:47.260Z,1010.25
2018-10-01T09:58:47.240Z,1010.28
2018-10-01T09:59:47.221Z,1010.30
2018-10-01T10:00:47.198Z,1010.22
2018-10-01T10:01:47.179Z,1010.27
2018-10-01T10:02:47.158Z,1010.30
2018-10-01T10:03:47.144Z,1010.29
2018-10-01T10:04:47.133Z,1010.38
2018-10-01T10:05:47.097Z,1010.36
2018-10-01T10:06:47.077Z,1010.29
2018-10-01T10:07:47.062Z,1010.29
2018-10-01T10:08:47.037Z,1010.33
2018-10-01T10:09:47.015Z,1010.30
2018-10-01T10:10:46.994Z,1010.31
2018-10-01T10:11:46.975Z,1010.30
2018-10-01T10:12:46.955Z,1010.32
2018-10-01T10:13:46.933Z,1010.32
2018-10-01T10:14:46.916Z,1010.28
2018-10-01T10:15:46.898Z,1010.31
2018-10-01T10:16:46.982Z,1010.33
2018-10-01T10:17:46.872Z,1010.30
2018-10-01T10:18:46.833Z,1010.31
2018-10-01T10:19:46.813Z,1010.32
2018-10-01T10:20:46.801Z,1010.34
2018-10-01T10:21:46.773Z,1010.29
2018-10-01T10:22:46.750Z,1010.32
2018-10-01T10:23:46.729Z,1010.38
2018-10-01T10:24:46.710Z,1010.35
2018-10-01T10:25:46.689Z,1010.35
2018-10-01T10:26:46.671Z,1010.44
2018-10-01T10:27:46.649Z,1010.38
2018-10-01T10:28:46.629Z,1010.36
2018-10-01T10:29:46.609Z,1010.37
2018-10-01T10:30:46.591Z,1010.38
2018-10-01T10:31:46.569Z,1010.42
2018-10-01T10:32:46.549Z,1010.39
2018-10-01T10:33:46.528Z,1010.38
2018-10-01T10:34:46.507Z,1010.37
2018-10-01T10:35:46.489Z,1010.38
2018-10-01T10:36:46.466Z,1010.44
2018-10-01T10:37:46.451Z,1010.40
2018-10-01T10:38:46.428Z,1010.35
2018-10-01T10:39:46.406Z,1010.33
2018-10-01T10:40:46.387Z,1010.36
2018-10-01T10:41:46.373Z,1010.32
2018-10-01T10:42:46.345Z,1010.41
2018-10-01T10:43:46.326Z,1010.41
2018-10-01T10:44:46.303Z,1010.37
2018-10-01T10:45:46.286Z,1010.37
2018-10-01T10:46:46.263Z,1010.38
2018-10-01T10:47:46.246Z,1010.39
2018-10-01T10:48:46.223Z,1010.45
2018-10-01T10:49:46.209Z,1010.45
2018-10-01T10:50:46.183Z,1010.49
2018-10-01T10:51:46.162Z,1010.49
2018-10-01T10:52:46.142Z,1010.50
2018-10-01T10:53:46.125Z,1010.51
2018-10-01T10:54:46.101Z,1010.55
2018-10-01T10:55:46.081Z,1010.61
2018-10-01T10:56:46.103Z,1010.73
2018-10-01T10:57:46.041Z,1010.69
2018-10-01T10:58:46.018Z,1010.68
2018-10-01T10:59:45.999Z,1010.72
2018-10-01T11:00:45.985Z,1010.72
2018-10-01T11:01:45.964Z,1010.74
2018-10-01T11:02:45.939Z,1010.75
2018-10-01T11:03:45.920Z,1010.80
2018-10-01T11:04:45.899Z,1010.82
2018-10-01T11:05:45.881Z,1010.76
2018-10-01T11:06:45.860Z,1010.86
2018-10-01T11:07:45.839Z,1010.78
2018-10-01T11:08:45.817Z,1010.79
2018-10-01T11:09:45.798Z,1010.75
2018-10-01T11:10:45.777Z,1010.72
2018-10-01T11:11:45.757Z,1010.74
2018-10-01T11:12:45.742Z,1010.81
2018-10-01T11:13:45.770Z,1010.86
2018-10-01T11:14:45.882Z,1010.86
2018-10-01T11:15:45.677Z,1010.84
2018-10-01T11:16:45.657Z,1010.84
2018-10-01T11:17:45.652Z,1010.87
2018-10-01T11:18:45.715Z,1010.82
2018-10-01T11:19:45.595Z,1010.84
2018-10-01T11:20:45.603Z,1010.80
2018-10-01T11:21:45.756Z,1010.80
2018-10-01T11:22:45.543Z,1010.86
2018-10-01T11:23:45.511Z,1010.85
2018-10-01T11:24:45.490Z,1010.87
2018-10-01T11:25:45.473Z,1010.86
2018-10-01T11:26:45.529Z,1010.84
2018-10-01T11:27:45.504Z,1010.88
2018-10-01T11:28:45.427Z,1010.81
2018-10-01T11:29:45.389Z,1010.82
2018-10-01T11:30:45.368Z,1010.88
2018-10-01T11:31:45.433Z,1010.87
2018-10-01T11:32:45.331Z,1010.85
2018-10-01T11:33:45.394Z,1010.87
2018-10-01T11:34:45.295Z,1010.88
2018-10-01T11:35:45.267Z,1010.87
2018-10-01T11:36:45.247Z,1010.90
2018-10-01T11:37:45.232Z,1010.92
2018-10-01T11:38:45.206Z,1010.86
2018-10-01T11:39:45.203Z,1010.89
2018-10-01T11:40:45.167Z,1010.87
2018-10-01T11:41:45.147Z,1010.84
2018-10-01T11:42:45.125Z,1010.88
2018-10-01T11:43:45.106Z,1010.87
2018-10-01T11:44:45.088Z,1010.88
2018-10-01T11:45:45.130Z,1010.87
2018-10-01T11:46:45.061Z,1010.85
2018-10-01T11:47:45.024Z,1010.93
2018-10-01T11:48:45.004Z,1010.86
2018-10-01T11:49:44.984Z,1010.93
2018-10-01T11:50:44.964Z,1010.97
2018-10-01T11:51:44.997Z,1011.03
2018-10-01T11:52:44.925Z,1011.05
2018-10-01T11:53:44.904Z,1011.19
2018-10-01T11:54:44.888Z,1011.20
2018-10-01T11:55:44.864Z,1011.22
2018-10-01T11:56:44.843Z,1011.24
2018-10-01T11:57:44.933Z,1011.28
2018-10-01T11:58:44.815Z,1011.38
2018-10-01T11:59:44.824Z,1011.40
2018-10-01T12:00:44.763Z,1011.34
2018-10-01T12:01:44.742Z,1011.29
2018-10-01T12:02:44.721Z,1011.30
2018-10-01T12:03:44.845Z,1011.28
2018-10-01T12:04:44.682Z,1011.25
2018-10-01T12:05:44.662Z,1011.29